aviador You're here:

SAOC Decoded Metar

RIO CUARTO in ARGENTINA
Report Time2017-11-22 21:00:00
UTC Time2017-11-22 21:45:55
Flight Rules vfr VFR
Wind050° at 06 kt
W.Decomp.*RWY 05: 6.0 kt HW 0.2 kt RCW
RWY 36: 3.7 kt HW 4.7 kt RCW
W.Rank050° ranks 4
Current wind is below 050° avg. (9.5)
Visibility9999 m
Phenomena:N/A
Clouds:Scattered 030 Hf
Few CB 040 Hf
Expected CloudBase > 9,600 ft AGL from Temp-Dew spread
CeilingNone
Temp30°C (ISA +18)
Dew Point06°C (22% RH)
Heat Index28.3°C
AAT26.9°C
QNH1006 hPa
Density Alt3,773 ft
Elevation1,381 ft
Report Wrong Elevation
Raw Report
METAR SAOC 222100Z 05006KT 9999 SCT030 FEW040CB 30/06 Q1006=

Extra information for SAOC:More info

Metar Taf Metar & Taf Last 4 Metars F.Rules Stats Wind Profile Meteogram Temp Stats Airport Information Weather charts Add Link Nearby VenuesMetar ALERT Operation Metar Decoded Social comments